Time;durP1;ratioP1;P1;durP2;ratioP2;P2;SDS_P1;SDS_P2;PMS_P1;PMS_P2;Temp;Humidity;BMP_temperature;BMP_pressure;BME280_temperature;BME280_humidity;BME280_pressure;Samples;Min_cycle;Max_cycle;Signal;HPM_P1;HPM_P2
2022/11/05 00:09:28;;;;;;;;;;;;;;;8.18;100.00;98690.66;5106298;28;19931;-78
2022/11/05 00:16:58;;;;;;;;;;;;;;;8.18;100.00;98715.03;5114623;28;19943;-78
2022/11/05 00:19:24;;;;;;;;;;;;;;;8.19;100.00;98710.44;5103033;28;19920;-78
2022/11/05 00:27:20;;;;;;;;;;;;;;;8.18;100.00;98725.84;5114435;28;19930;-78
2022/11/05 00:29:46;;;;;;;;;;;;;;;8.21;100.00;98735.50;5114364;28;19923;-78
2022/11/05 00:32:13;;;;;;;;;;;;;;;8.20;100.00;98733.78;5113527;28;19969;-78
2022/11/05 00:34:39;;;;;;;;;;;;;;;8.20;100.00;98740.03;5093914;28;19919;-78
2022/11/05 00:37:06;;;;;;;;;;;;;;;8.22;100.00;98739.84;5093806;28;19942;-78
2022/11/05 00:39:32;;;;;;;;;;;;;;;8.18;100.00;98736.69;5093789;28;19955;-78
2022/11/05 00:45:02;;;;;;;;;;;;;;;8.19;100.00;98749.22;5093881;28;19926;-78
2022/11/05 00:50:11;;;;;;;;;;;;;;;8.21;100.00;98746.31;5093810;28;19931;-78
2022/11/05 00:52:56;;;;;;;;;;;;;;;8.17;100.00;98742.28;5093221;28;20049;-78
2022/11/05 00:55:23;;;;;;;;;;;;;;;8.18;100.00;98747.50;5093508;28;20366;-78
2022/11/05 00:57:51;;;;;;;;;;;;;;;8.18;100.00;98746.69;5092698;28;19986;-78
2022/11/05 01:00:17;;;;;;;;;;;;;;;8.12;100.00;98751.78;5093620;28;19920;-78
2022/11/05 01:02:44;;;;;;;;;;;;;;;8.14;100.00;98763.28;5093061;28;20295;-78
2022/11/05 01:05:10;;;;;;;;;;;;;;;8.16;100.00;98768.53;5093438;28;19920;-78
2022/11/05 01:07:37;;;;;;;;;;;;;;;8.13;100.00;98766.19;5093499;28;19920;-78
2022/11/05 01:10:03;;;;;;;;;;;;;;;8.09;100.00;98768.38;5093637;28;19973;-78
2022/11/05 01:12:30;;;;;;;;;;;;;;;8.06;100.00;98773.31;5093263;28;19920;-78
2022/11/05 01:14:58;;;;;;;;;;;;;;;8.08;100.00;98779.38;5103438;28;20333;-78
2022/11/05 01:17:24;;;;;;;;;;;;;;;8.13;100.00;98780.53;5110111;28;19920;-78
2022/11/05 01:19:51;;;;;;;;;;;;;;;8.16;100.00;98773.94;5113933;28;19919;-78
2022/11/05 01:22:17;;;;;;;;;;;;;;;8.10;100.00;98777.34;5113475;28;19919;-78
2022/11/05 01:24:44;;;;;;;;;;;;;;;8.22;100.00;98786.75;5113737;28;20310;-78
2022/11/05 01:27:10;;;;;;;;;;;;;;;8.20;100.00;98782.53;5113436;28;20006;-78
2022/11/05 01:29:36;;;;;;;;;;;;;;;8.20;100.00;98780.66;5113596;28;19919;-78
2022/11/05 01:32:04;;;;;;;;;;;;;;;8.17;100.00;98786.44;5112674;28;19923;-78
2022/11/05 01:34:31;;;;;;;;;;;;;;;8.15;100.00;98791.19;5113740;28;19924;-78
2022/11/05 01:36:57;;;;;;;;;;;;;;;8.11;100.00;98787.16;5113226;28;20076;-78
2022/11/05 01:39:24;;;;;;;;;;;;;;;8.10;100.00;98789.03;5113729;28;19967;-78
2022/11/05 01:41:50;;;;;;;;;;;;;;;8.15;100.00;98791.19;5113240;28;19926;-78
2022/11/05 01:44:40;;;;;;;;;;;;;;;8.15;100.00;98786.63;5113282;28;20466;-78
2022/11/05 01:47:11;;;;;;;;;;;;;;;8.13;100.00;98793.25;5087074;28;19920;-78
2022/11/05 01:49:38;;;;;;;;;;;;;;;8.10;100.00;98799.00;5093175;28;20002;-78
2022/11/05 01:52:04;;;;;;;;;;;;;;;8.15;100.00;98797.44;5093210;28;19920;-78
2022/11/05 01:54:32;;;;;;;;;;;;;;;8.15;100.00;98794.75;5094503;28;19993;-78
2022/11/05 01:57:01;;;;;;;;;;;;;;;8.12;100.00;98799.69;5095951;28;20023;-78
2022/11/05 01:59:30;;;;;;;;;;;;;;;8.15;100.00;98796.63;5096126;28;19972;-78
2022/11/05 02:01:56;;;;;;;;;;;;;;;8.15;100.00;98804.72;5096491;28;20429;-78
2022/11/05 02:04:26;;;;;;;;;;;;;;;8.14;100.00;98809.31;5115060;28;19920;-78
2022/11/05 02:06:53;;;;;;;;;;;;;;;8.20;100.00;98810.44;5117000;27;20294;-78
2022/11/05 02:09:22;;;;;;;;;;;;;;;8.23;100.00;98807.38;5117081;28;19919;-78
2022/11/05 02:11:49;;;;;;;;;;;;;;;8.23;100.00;98814.66;5116838;28;19919;-78
2022/11/05 02:14:17;;;;;;;;;;;;;;;8.21;100.00;98808.59;5115791;28;20002;-78
2022/11/05 02:16:45;;;;;;;;;;;;;;;8.21;100.00;98812.16;5116862;28;19988;-78
2022/11/05 02:19:27;;;;;;;;;;;;;;;8.20;100.00;98815.03;5116721;28;19919;-78
2022/11/05 02:22:19;;;;;;;;;;;;;;;8.21;100.00;98811.31;5116760;28;20019;-78
2022/11/05 02:24:56;;;;;;;;;;;;;;;8.15;100.00;98810.97;5116691;28;20355;-78
2022/11/05 02:27:30;;;;;;;;;;;;;;;8.15;100.00;98813.69;5102619;28;20003;-78
2022/11/05 02:30:04;;;;;;;;;;;;;;;8.19;100.00;98814.19;5096123;28;19946;-78
2022/11/05 02:32:37;;;;;;;;;;;;;;;8.12;100.00;98824.88;5095982;28;19942;-78
2022/11/05 02:35:10;;;;;;;;;;;;;;;8.11;100.00;98820.50;5096123;28;20264;-77
2022/11/05 02:37:39;;;;;;;;;;;;;;;8.14;100.00;98820.16;5096069;28;19977;-78
2022/11/05 02:40:10;;;;;;;;;;;;;;;8.10;100.00;98821.53;5097049;28;19920;-78
2022/11/05 02:42:42;;;;;;;;;;;;;;;8.14;100.00;98827.41;5112912;28;19919;-78
2022/11/05 02:45:15;;;;;;;;;;;;;;;8.22;100.00;98818.38;5116466;28;19920;-78
2022/11/05 02:47:44;;;;;;;;;;;;;;;8.19;100.00;98829.59;5116252;28;19926;-78
2022/11/05 02:50:18;;;;;;;;;;;;;;;8.23;100.00;98825.50;5116051;28;20392;-78
2022/11/05 02:52:48;;;;;;;;;;;;;;;8.20;100.00;98826.69;5115753;28;20334;-78
2022/11/05 02:55:19;;;;;;;;;;;;;;;8.15;100.00;98829.94;5115995;28;20379;-78
2022/11/05 02:57:47;;;;;;;;;;;;;;;8.21;100.00;98831.09;5115502;28;20085;-78
2022/11/05 03:00:32;;;;;;;;;;;;;;;8.26;100.00;98827.84;5115981;28;19919;-78
2022/11/05 03:02:59;;;;;;;;;;;;;;;8.23;100.00;98826.34;5113615;27;19920;-78
2022/11/05 03:05:30;;;;;;;;;;;;;;;8.21;100.00;98828.38;5115527;28;19923;-78
2022/11/05 03:08:00;;;;;;;;;;;;;;;8.21;100.00;98830.25;5115742;27;20290;-78
2022/11/05 03:10:32;;;;;;;;;;;;;;;8.21;100.00;98824.84;5112486;28;19923;-78
2022/11/05 03:13:04;;;;;;;;;;;;;;;8.17;100.00;98818.94;5094744;28;19924;-78
2022/11/05 03:15:47;;;;;;;;;;;;;;;8.14;100.00;98836.41;5095227;28;19927;-78
2022/11/05 03:18:16;;;;;;;;;;;;;;;8.15;100.00;98829.09;5094998;28;19920;-78
2022/11/05 03:20:47;;;;;;;;;;;;;;;8.16;100.00;98841.63;5095290;28;19920;-78
2022/11/05 03:23:19;;;;;;;;;;;;;;;8.10;100.00;98832.34;5094833;28;19927;-78
2022/11/05 03:25:49;;;;;;;;;;;;;;;8.06;100.00;98838.28;5095219;28;19920;-78
2022/11/05 03:28:18;;;;;;;;;;;;;;;8.10;100.00;98842.31;5095415;28;20374;-78
2022/11/05 03:30:45;;;;;;;;;;;;;;;8.12;100.00;98843.00;5094188;28;19920;-78
2022/11/05 03:33:13;;;;;;;;;;;;;;;8.07;100.00;98846.25;5093426;28;20275;-78
2022/11/05 03:35:43;;;;;;;;;;;;;;;8.07;100.00;98845.38;5094042;28;19942;-78
2022/11/05 03:38:11;;;;;;;;;;;;;;;8.09;100.00;98846.06;5093655;28;19926;-78
2022/11/05 03:40:39;;;;;;;;;;;;;;;8.11;100.00;98850.28;5093693;28;20006;-78
2022/11/05 03:43:06;;;;;;;;;;;;;;;8.12;100.00;98857.38;5093490;28;19920;-78
2022/11/05 03:45:35;;;;;;;;;;;;;;;8.13;100.00;98858.22;5093801;28;19920;-78
2022/11/05 03:48:02;;;;;;;;;;;;;;;8.15;100.00;98853.47;5093633;28;19920;-78
2022/11/05 03:50:32;;;;;;;;;;;;;;;8.17;100.00;98854.13;5097206;28;19920;-78
2022/11/05 03:53:04;;;;;;;;;;;;;;;8.19;100.00;98862.06;5093542;28;19924;-78
2022/11/05 03:55:33;;;;;;;;;;;;;;;8.20;100.00;98861.06;5093484;28;19920;-78
2022/11/05 03:58:02;;;;;;;;;;;;;;;8.16;100.00;98871.41;5093280;28;19920;-78
2022/11/05 04:00:29;;;;;;;;;;;;;;;8.11;100.00;98871.94;5103287;28;20386;-78
2022/11/05 04:02:55;;;;;;;;;;;;;;;8.14;100.00;98881.56;5113441;28;19926;-78
2022/11/05 04:05:22;;;;;;;;;;;;;;;8.19;100.00;98878.31;5113723;28;19930;-78
2022/11/05 04:13:26;;;;;;;;;;;;;;;8.17;100.00;98885.78;5113373;28;20016;-78
2022/11/05 04:18:37;;;;;;;;;;;;;;;8.21;100.00;98896.09;5092757;28;20307;-78
2022/11/05 04:26:33;;;;;;;;;;;;;;;8.24;100.00;98898.44;5093029;28;19926;-78
2022/11/05 04:31:43;;;;;;;;;;;;;;;8.22;100.00;98908.63;5094431;28;20515;-78
2022/11/05 04:34:10;;;;;;;;;;;;;;;8.22;100.00;98907.75;5112763;28;19924;-78
2022/11/05 04:36:37;;;;;;;;;;;;;;;8.24;100.00;98916.56;5113393;28;20399;-78
2022/11/05 04:39:03;;;;;;;;;;;;;;;8.16;100.00;98912.03;5113057;28;19926;-78
2022/11/05 04:41:30;;;;;;;;;;;;;;;8.20;100.00;98907.94;5112923;28;19920;-78
2022/11/05 04:43:58;;;;;;;;;;;;;;;8.18;100.00;98915.41;5112746;28;20128;-78
2022/11/05 04:46:24;;;;;;;;;;;;;;;8.15;100.00;98918.47;5113096;28;19920;-78
2022/11/05 04:48:50;;;;;;;;;;;;;;;8.14;100.00;98919.47;5110220;28;19928;-78
2022/11/05 04:51:17;;;;;;;;;;;;;;;8.16;100.00;98922.88;5111415;28;19991;-78
2022/11/05 04:53:43;;;;;;;;;;;;;;;8.15;100.00;98924.72;5112866;28;19920;-78
2022/11/05 04:56:10;;;;;;;;;;;;;;;8.17;100.00;98921.81;5112788;28;19926;-78
2022/11/05 04:58:38;;;;;;;;;;;;;;;8.14;100.00;98925.75;5113162;28;19931;-78
2022/11/05 05:01:07;;;;;;;;;;;;;;;8.25;100.00;98921.81;5112878;28;20010;-78
2022/11/05 05:03:33;;;;;;;;;;;;;;;8.21;100.00;98922.34;5111060;28;20363;-78
2022/11/05 05:06:00;;;;;;;;;;;;;;;8.20;100.00;98928.75;5112795;28;19924;-78
2022/11/05 05:08:26;;;;;;;;;;;;;;;8.26;100.00;98928.88;5112751;28;20073;-78
2022/11/05 05:10:53;;;;;;;;;;;;;;;8.26;100.00;98928.88;5112639;28;19967;-78
2022/11/05 05:13:19;;;;;;;;;;;;;;;8.18;100.00;98928.09;5112514;28;19919;-78
2022/11/05 05:15:45;;;;;;;;;;;;;;;8.18;100.00;98928.94;5112841;28;19926;-78
2022/11/05 05:18:13;;;;;;;;;;;;;;;8.17;100.00;98935.38;5093846;28;20367;-78
2022/11/05 05:23:35;;;;;;;;;;;;;;;8.13;100.00;98945.72;5049650;28;19927;-78
2022/11/05 05:26:01;;;;;;;;;;;;;;;8.11;100.00;98945.06;5081885;28;19924;-79
2022/11/05 05:28:28;;;;;;;;;;;;;;;8.13;100.00;98951.13;5093682;28;20303;-79
2022/11/05 05:30:58;;;;;;;;;;;;;;;8.06;100.00;98955.53;5096612;28;19920;-78
2022/11/05 05:33:25;;;;;;;;;;;;;;;8.06;100.00;98955.53;5095797;28;20011;-78
2022/11/05 05:35:52;;;;;;;;;;;;;;;8.09;100.00;98957.91;5096369;28;19927;-78
2022/11/05 05:38:18;;;;;;;;;;;;;;;8.14;100.00;98960.09;5096155;28;19927;-78
2022/11/05 05:40:45;;;;;;;;;;;;;;;8.08;100.00;98969.75;5096039;28;19926;-78
2022/11/05 05:43:11;;;;;;;;;;;;;;;8.02;100.00;98966.91;5095730;28;19920;-79
2022/11/05 05:45:38;;;;;;;;;;;;;;;8.07;100.00;98964.50;5096329;28;20014;-78
2022/11/05 05:48:04;;;;;;;;;;;;;;;8.06;100.00;98966.38;5096047;28;19966;-78
2022/11/05 05:50:32;;;;;;;;;;;;;;;8.03;100.00;98960.47;5106417;28;19926;-78
2022/11/05 05:52:58;;;;;;;;;;;;;;;7.97;100.00;98962.84;5116185;27;20309;-78
2022/11/05 05:55:25;;;;;;;;;;;;;;;7.97;100.00;98965.53;5116156;28;19926;-78
2022/11/05 05:57:51;;;;;;;;;;;;;;;8.02;100.00;98969.59;5116383;28;19919;-78
2022/11/05 06:00:18;;;;;;;;;;;;;;;7.98;100.00;98977.25;5116029;28;19925;-78
2022/11/05 06:02:44;;;;;;;;;;;;;;;7.95;100.00;98978.41;5109951;28;19926;-78
2022/11/05 06:05:10;;;;;;;;;;;;;;;8.08;100.00;98985.16;5095424;28;19920;-78
2022/11/05 06:07:38;;;;;;;;;;;;;;;8.02;100.00;98983.13;5095711;28;19924;-78
2022/11/05 06:10:05;;;;;;;;;;;;;;;8.04;100.00;98997.34;5095738;28;19926;-78
2022/11/05 06:12:31;;;;;;;;;;;;;;;7.98;100.00;98990.78;5095414;28;19920;-78
2022/11/05 06:14:58;;;;;;;;;;;;;;;8.04;100.00;98994.63;5095483;28;20002;-78
2022/11/05 06:17:24;;;;;;;;;;;;;;;8.14;100.00;98990.75;5095352;28;19923;-78
2022/11/05 06:19:50;;;;;;;;;;;;;;;8.09;100.00;98997.69;5095818;28;19920;-78
2022/11/05 06:22:17;;;;;;;;;;;;;;;8.04;100.00;98994.63;5096442;28;19923;-78
2022/11/05 06:24:45;;;;;;;;;;;;;;;8.06;100.00;99007.00;5110396;28;19936;-78
2022/11/05 06:27:11;;;;;;;;;;;;;;;8.08;100.00;99004.09;5115420;28;19926;-78
2022/11/05 06:29:37;;;;;;;;;;;;;;;8.09;100.00;99016.63;5115501;28;20112;-78
2022/11/05 06:32:04;;;;;;;;;;;;;;;8.12;100.00;99019.84;5115399;27;19919;-78
2022/11/05 06:34:30;;;;;;;;;;;;;;;8.06;100.00;99025.09;5115391;28;19920;-78
2022/11/05 06:36:57;;;;;;;;;;;;;;;8.07;100.00;99029.47;5114381;28;19930;-78
2022/11/05 06:39:23;;;;;;;;;;;;;;;8.05;100.00;99028.81;5094435;28;19927;-78
2022/11/05 06:41:51;;;;;;;;;;;;;;;8.09;100.00;99038.28;5094669;28;20284;-78
2022/11/05 06:44:17;;;;;;;;;;;;;;;8.11;100.00;99029.00;5094562;28;19930;-78
2022/11/05 06:46:44;;;;;;;;;;;;;;;8.15;100.00;99035.72;5094937;28;19920;-78
2022/11/05 06:49:10;;;;;;;;;;;;;;;8.12;100.00;99037.94;5094534;28;19971;-78
2022/11/05 06:51:37;;;;;;;;;;;;;;;8.12;100.00;99038.78;5113760;28;19923;-78
2022/11/05 06:54:03;;;;;;;;;;;;;;;8.14;100.00;99047.59;5112475;28;19919;-78
2022/11/05 06:56:30;;;;;;;;;;;;;;;8.10;100.00;99048.94;5094567;28;19924;-78
2022/11/05 06:58:57;;;;;;;;;;;;;;;8.11;100.00;99055.19;5094607;28;20025;-78
2022/11/05 07:01:24;;;;;;;;;;;;;;;8.18;100.00;99063.50;5094443;28;20364;-78
2022/11/05 07:03:50;;;;;;;;;;;;;;;8.19;100.00;99071.44;5094403;28;20022;-78
2022/11/05 07:06:17;;;;;;;;;;;;;;;8.17;100.00;99068.06;5094593;28;19926;-78
2022/11/05 07:08:43;;;;;;;;;;;;;;;8.15;100.00;99079.06;5094610;28;19920;-78
2022/11/05 07:11:10;;;;;;;;;;;;;;;8.20;100.00;99085.81;5094389;28;20363;-78
2022/11/05 07:13:36;;;;;;;;;;;;;;;8.29;100.00;99088.34;5099075;28;19920;-78
2022/11/05 07:16:04;;;;;;;;;;;;;;;8.37;100.00;99089.34;5114558;28;19920;-78
2022/11/05 07:18:30;;;;;;;;;;;;;;;8.31;100.00;99094.44;5114614;28;19920;-78
2022/11/05 07:20:58;;;;;;;;;;;;;;;8.36;100.00;99106.63;5114490;28;19963;-78
2022/11/05 07:23:25;;;;;;;;;;;;;;;8.36;100.00;99107.47;5114167;28;20003;-78
2022/11/05 07:25:51;;;;;;;;;;;;;;;8.41;100.00;99106.94;5114586;28;19919;-78
2022/11/05 07:28:17;;;;;;;;;;;;;;;8.40;100.00;99118.78;5114413;28;19939;-78
2022/11/05 07:30:44;;;;;;;;;;;;;;;8.44;100.00;99121.03;5112630;28;19919;-78
2022/11/05 07:33:12;;;;;;;;;;;;;;;8.48;100.00;99124.25;5113601;28;19926;-78
2022/11/05 07:35:38;;;;;;;;;;;;;;;8.42;100.00;99123.03;5105353;28;19927;-78
2022/11/05 07:38:04;;;;;;;;;;;;;;;8.32;100.00;99127.78;5093724;28;20280;-78
2022/11/05 07:40:31;;;;;;;;;;;;;;;8.32;100.00;99139.47;5093739;28;19926;-77
2022/11/05 07:42:58;;;;;;;;;;;;;;;8.34;100.00;99133.91;5093349;28;19951;-78
2022/11/05 07:45:25;;;;;;;;;;;;;;;8.39;100.00;99139.63;5093915;28;20043;-78
2022/11/05 07:47:52;;;;;;;;;;;;;;;8.38;100.00;99145.22;5093491;28;19927;-78
2022/11/05 07:50:21;;;;;;;;;;;;;;;8.34;100.00;99147.44;5096619;28;20025;-78
2022/11/05 07:52:48;;;;;;;;;;;;;;;8.45;100.00;99148.97;5092950;28;20018;-78
2022/11/05 07:55:15;;;;;;;;;;;;;;;8.42;100.00;99150.13;5093600;28;19919;-78
2022/11/05 07:57:42;;;;;;;;;;;;;;;8.41;100.00;99161.13;5093636;28;19920;-78
2022/11/05 08:00:09;;;;;;;;;;;;;;;8.39;100.00;99161.31;5094842;28;19928;-78
2022/11/05 08:02:35;;;;;;;;;;;;;;;8.33;100.00;99164.69;5113359;28;20294;-78
2022/11/05 08:05:01;;;;;;;;;;;;;;;8.40;100.00;99162.13;5113741;28;19926;-78
2022/11/05 08:07:29;;;;;;;;;;;;;;;8.55;100.00;99160.47;5113598;28;19989;-78
2022/11/05 08:09:55;;;;;;;;;;;;;;;8.56;100.00;99169.44;5113633;28;19926;-78
2022/11/05 08:12:22;;;;;;;;;;;;;;;8.49;100.00;99167.44;5113442;28;20022;-78
2022/11/05 08:14:50;;;;;;;;;;;;;;;8.47;100.00;99169.44;5113748;28;20320;-79
2022/11/05 08:17:17;;;;;;;;;;;;;;;8.47;100.00;99165.91;5112508;28;20219;-78
2022/11/05 08:19:43;;;;;;;;;;;;;;;8.46;100.00;99172.31;5113746;28;19920;-78
2022/11/05 08:22:09;;;;;;;;;;;;;;;8.49;100.00;99177.41;5112897;28;19920;-78
2022/11/05 08:24:37;;;;;;;;;;;;;;;8.44;100.00;99174.38;5113341;28;20331;-78
2022/11/05 08:27:03;;;;;;;;;;;;;;;8.48;100.00;99181.16;5113234;28;19926;-78
2022/11/05 08:29:30;;;;;;;;;;;;;;;8.58;100.00;99184.53;5113077;28;20018;-78
2022/11/05 08:31:56;;;;;;;;;;;;;;;8.59;100.00;99182.66;5113467;28;19941;-78
2022/11/05 08:34:23;;;;;;;;;;;;;;;8.66;100.00;99184.50;5094555;28;19920;-78
2022/11/05 08:36:49;;;;;;;;;;;;;;;8.59;100.00;99190.78;5092925;28;20335;-78
2022/11/05 08:39:17;;;;;;;;;;;;;;;8.51;100.00;99194.34;5092560;28;20356;-78
2022/11/05 08:41:45;;;;;;;;;;;;;;;8.60;100.00;99193.31;5092589;28;20375;-78
2022/11/05 08:44:12;;;;;;;;;;;;;;;8.63;100.00;99192.97;5092331;28;20011;-78
2022/11/05 08:46:38;;;;;;;;;;;;;;;8.63;100.00;99194.84;5093057;28;19920;-78
2022/11/05 08:49:05;;;;;;;;;;;;;;;8.70;100.00;99195.81;5092555;28;19920;-78
2022/11/05 08:51:31;;;;;;;;;;;;;;;8.64;100.00;99207.34;5112547;28;20387;-78
2022/11/05 08:53:58;;;;;;;;;;;;;;;8.65;100.00;99199.06;5112874;28;19924;-78
2022/11/05 08:56:24;;;;;;;;;;;;;;;8.60;100.00;99209.56;5112821;28;19920;-78
2022/11/05 08:58:52;;;;;;;;;;;;;;;8.56;100.00;99212.81;5112942;28;20298;-78
2022/11/05 09:01:18;;;;;;;;;;;;;;;8.52;100.00;99212.31;5112718;28;19923;-77
2022/11/05 09:03:44;;;;;;;;;;;;;;;8.41;100.00;99218.84;5114732;28;20346;-79
2022/11/05 09:06:11;;;;;;;;;;;;;;;8.40;100.00;99210.91;5117118;28;20007;-78
2022/11/05 09:08:37;;;;;;;;;;;;;;;8.48;100.00;99219.91;5115105;28;20489;-78
2022/11/05 09:11:03;;;;;;;;;;;;;;;8.46;100.00;99219.25;5117124;27;20006;-79
2022/11/05 09:13:30;;;;;;;;;;;;;;;8.52;100.00;99230.41;5116651;27;19920;-78
2022/11/05 09:15:58;;;;;;;;;;;;;;;8.46;100.00;99232.78;5117089;28;19926;-79
2022/11/05 09:18:25;;;;;;;;;;;;;;;8.52;100.00;99228.56;5116959;27;19931;-78
2022/11/05 09:20:52;;;;;;;;;;;;;;;8.61;100.00;99238.38;5117015;28;19926;-78
2022/11/05 09:23:18;;;;;;;;;;;;;;;8.55;100.00;99238.19;5102753;28;19920;-78
2022/11/05 09:25:45;;;;;;;;;;;;;;;8.38;100.00;99240.03;5096405;28;19919;-79
2022/11/05 09:28:12;;;;;;;;;;;;;;;8.38;100.00;99249.00;5096367;28;19919;-79
2022/11/05 09:30:39;;;;;;;;;;;;;;;8.39;100.00;99250.69;5096380;28;20006;-78
2022/11/05 09:33:07;;;;;;;;;;;;;;;8.37;100.00;99250.03;5096093;28;19924;-78
2022/11/05 09:35:34;;;;;;;;;;;;;;;8.50;100.00;99247.66;5096514;28;19927;-78
2022/11/05 09:38:00;;;;;;;;;;;;;;;8.47;100.00;99250.72;5096193;28;19920;-79
2022/11/05 09:40:29;;;;;;;;;;;;;;;8.60;100.00;99242.09;5097340;28;20034;-79
2022/11/05 09:42:56;;;;;;;;;;;;;;;8.60;100.00;99244.81;5095812;28;19920;-78
2022/11/05 09:45:24;;;;;;;;;;;;;;;8.61;100.00;99240.22;5097245;28;19920;-79
2022/11/05 09:47:53;;;;;;;;;;;;;;;8.79;100.00;99249.03;5097145;28;19920;-79
2022/11/05 09:50:24;;;;;;;;;;;;;;;8.92;100.00;99250.38;5096984;28;20290;-79
2022/11/05 09:52:50;;;;;;;;;;;;;;;8.92;100.00;99251.19;5096538;28;19963;-79
2022/11/05 09:55:20;;;;;;;;;;;;;;;8.84;100.00;99254.78;5097113;28;19920;-79
2022/11/05 09:57:51;;;;;;;;;;;;;;;8.86;100.00;99260.84;5096919;28;20006;-78
2022/11/05 10:00:18;;;;;;;;;;;;;;;8.88;100.00;99265.28;5096696;28;20407;-78
2022/11/05 10:02:47;;;;;;;;;;;;;;;8.78;100.00;99260.88;5096679;28;19952;-79
2022/11/05 10:05:14;;;;;;;;;;;;;;;8.80;100.00;99260.72;5096719;28;20006;-79
2022/11/05 10:07:44;;;;;;;;;;;;;;;8.78;100.00;99274.44;5096818;28;20393;-79
2022/11/05 10:10:26;;;;;;;;;;;;;;;8.66;100.00;99279.34;5096764;28;19920;-78
2022/11/05 10:12:54;;;;;;;;;;;;;;;8.63;100.00;99282.41;5096280;28;20378;-79
2022/11/05 10:15:22;;;;;;;;;;;;;;;8.61;100.00;99287.16;5095379;28;19926;-78
2022/11/05 10:17:50;;;;;;;;;;;;;;;8.64;100.00;99288.66;5096495;28;20447;-79
2022/11/05 10:20:22;;;;;;;;;;;;;;;8.53;100.00;99297.13;5096153;28;19920;-79
2022/11/05 10:22:55;;;;;;;;;;;;;;;8.48;100.00;99303.91;5097953;28;19930;-78
2022/11/05 10:25:22;;;;;;;;;;;;;;;8.57;100.00;99301.22;5116784;28;19941;-78
2022/11/05 10:27:51;;;;;;;;;;;;;;;8.60;100.00;99300.88;5116866;28;20331;-78
2022/11/05 10:30:17;;;;;;;;;;;;;;;8.52;100.00;99307.16;5116530;28;19927;-79
2022/11/05 10:32:45;;;;;;;;;;;;;;;8.62;100.00;99309.69;5116584;28;19919;-78
2022/11/05 10:35:13;;;;;;;;;;;;;;;8.46;100.00;99313.22;5116374;28;19926;-78
2022/11/05 10:37:40;;;;;;;;;;;;;;;8.38;100.00;99310.47;5113886;27;19928;-79
2022/11/05 10:40:14;;;;;;;;;;;;;;;8.28;100.00;99313.31;5096090;28;20291;-78
2022/11/05 10:42:46;;;;;;;;;;;;;;;8.32;100.00;99311.97;5095079;28;19920;-78
2022/11/05 10:45:18;;;;;;;;;;;;;;;8.35;100.00;99311.63;5094807;28;19930;-78
2022/11/05 10:47:48;;;;;;;;;;;;;;;8.31;100.00;99307.59;5095116;28;19927;-78
2022/11/05 10:50:16;;;;;;;;;;;;;;;8.45;100.00;99308.81;5094784;28;19924;-78
2022/11/05 10:52:55;;;;;;;;;;;;;;;8.54;100.00;99309.69;5108941;28;20394;-78
2022/11/05 10:55:24;;;;;;;;;;;;;;;8.60;100.00;99317.13;5114877;28;19942;-78
2022/11/05 10:57:51;;;;;;;;;;;;;;;8.62;100.00;99310.50;5116238;28;19928;-78
2022/11/05 11:00:21;;;;;;;;;;;;;;;8.49;100.00;99321.00;5115944;28;19926;-78
2022/11/05 11:02:49;;;;;;;;;;;;;;;8.46;100.00;99319.50;5116024;28;20294;-78
2022/11/05 11:05:19;;;;;;;;;;;;;;;8.46;100.00;99322.19;5115952;28;19954;-78
2022/11/05 11:07:52;;;;;;;;;;;;;;;8.62;100.00;99328.66;5114511;28;19920;-78
2022/11/05 11:10:19;;;;;;;;;;;;;;;8.49;100.00;99326.41;5115804;28;19919;-78
2022/11/05 11:12:48;;;;;;;;;;;;;;;8.39;100.00;99329.25;5115696;27;19923;-78
2022/11/05 11:15:16;;;;;;;;;;;;;;;8.46;100.00;99327.63;5115942;28;19973;-78
2022/11/05 11:17:43;;;;;;;;;;;;;;;8.56;100.00;99330.16;5115777;28;19926;-77
2022/11/05 11:20:20;;;;;;;;;;;;;;;8.58;100.00;99330.00;5115683;28;19919;-78
2022/11/05 11:22:58;;;;;;;;;;;;;;;8.61;100.00;99333.22;5108429;28;20006;-78
2022/11/05 11:25:26;;;;;;;;;;;;;;;8.66;100.00;99332.72;5095139;28;19920;-77
2022/11/05 11:27:54;;;;;;;;;;;;;;;8.57;100.00;99336.44;5094960;28;20057;-78
2022/11/05 11:30:20;;;;;;;;;;;;;;;8.58;100.00;99336.28;5094891;28;19920;-78
2022/11/05 11:32:48;;;;;;;;;;;;;;;8.50;100.00;99334.38;5094996;28;19927;-79
2022/11/05 11:35:20;;;;;;;;;;;;;;;8.65;100.00;99337.28;5094826;28;20290;-78
2022/11/05 11:37:46;;;;;;;;;;;;;;;8.78;100.00;99328.66;5094912;28;20001;-78
2022/11/05 11:40:15;;;;;;;;;;;;;;;8.96;100.00;99328.47;5103642;28;20006;-78
2022/11/05 11:42:44;;;;;;;;;;;;;;;9.24;100.00;99319.13;5113885;28;20382;-78
2022/11/05 11:45:17;;;;;;;;;;;;;;;9.29;100.00;99319.44;5114094;28;19927;-79
2022/11/05 11:47:44;;;;;;;;;;;;;;;9.41;100.00;99320.78;5113983;27;20368;-78
2022/11/05 11:50:34;;;;;;;;;;;;;;;9.21;100.00;99321.16;5113944;28;20010;-78
2022/11/05 11:53:15;;;;;;;;;;;;;;;9.33;100.00;99331.66;5113089;28;19920;-77
2022/11/05 11:55:55;;;;;;;;;;;;;;;9.47;100.00;99335.50;5113044;28;19919;-77
2022/11/05 11:58:22;;;;;;;;;;;;;;;9.40;100.00;99332.66;5114552;28;19920;-78
2022/11/05 12:00:53;;;;;;;;;;;;;;;9.31;100.00;99330.97;5114297;28;19924;-78
2022/11/05 12:03:23;;;;;;;;;;;;;;;9.33;100.00;99327.09;5113572;28;19924;-78
2022/11/05 12:05:53;;;;;;;;;;;;;;;9.32;100.00;99327.22;5114392;28;20293;-78
2022/11/05 12:08:35;;;;;;;;;;;;;;;9.24;100.00;99328.09;5114482;28;19920;-78
2022/11/05 12:11:04;;;;;;;;;;;;;;;9.38;100.00;99335.53;5099573;28;20000;-78
2022/11/05 12:13:48;;;;;;;;;;;;;;;9.46;100.00;99326.53;5093722;28;20389;-78
2022/11/05 12:16:21;;;;;;;;;;;;;;;9.64;100.00;99320.03;5094025;28;20276;-78
2022/11/05 12:18:53;;;;;;;;;;;;;;;9.54;100.00;99328.38;5093951;28;20347;-78
2022/11/05 12:21:24;;;;;;;;;;;;;;;9.56;100.00;99324.47;5094040;28;19920;-78
2022/11/05 12:24:08;;;;;;;;;;;;;;;9.80;100.00;99317.25;5093791;28;20275;-78
2022/11/05 12:26:40;;;;;;;;;;;;;;;9.65;100.00;99319.88;5080866;28;19942;-78
2022/11/05 12:29:23;;;;;;;;;;;;;;;9.68;100.00;99311.38;5113110;28;19920;-78
2022/11/05 12:31:58;;;;;;;;;;;;;;;9.76;100.00;99321.34;5113097;28;19920;-78
2022/11/05 12:34:32;;;;;;;;;;;;;;;9.83;100.00;99316.03;5112935;28;19926;-78
2022/11/05 12:37:04;;;;;;;;;;;;;;;9.91;100.00;99305.16;5113251;28;19924;-78
2022/11/05 12:39:43;;;;;;;;;;;;;;;9.87;100.00;99311.97;5109063;28;19920;-78
2022/11/05 12:42:15;;;;;;;;;;;;;;;9.67;100.00;99312.38;5093310;28;19920;-78
2022/11/05 12:44:52;;;;;;;;;;;;;;;9.79;100.00;99314.72;5093755;28;19924;-78
2022/11/05 12:47:28;;;;;;;;;;;;;;;9.87;100.00;99310.06;5093814;28;19920;-78
2022/11/05 12:50:00;;;;;;;;;;;;;;;9.72;100.00;99325.41;5093031;28;19920;-78
2022/11/05 12:52:51;;;;;;;;;;;;;;;9.51;100.00;99321.41;5093280;28;20275;-78
2022/11/05 12:55:19;;;;;;;;;;;;;;;9.42;100.00;99321.63;5077926;28;19920;-78
2022/11/05 12:57:47;;;;;;;;;;;;;;;9.49;100.00;99330.78;5107673;28;19941;-78
2022/11/05 13:00:16;;;;;;;;;;;;;;;9.50;100.00;99324.31;5113957;28;19920;-78
2022/11/05 13:02:48;;;;;;;;;;;;;;;9.49;100.00;99328.06;5113613;28;19926;-78
2022/11/05 13:05:16;;;;;;;;;;;;;;;9.48;100.00;99334.50;5113961;28;20268;-78
2022/11/05 13:07:46;;;;;;;;;;;;;;;9.48;100.00;99329.91;5113695;28;19926;-78
2022/11/05 13:10:18;;;;;;;;;;;;;;;9.51;100.00;99326.00;5113596;28;19919;-78
2022/11/05 13:12:46;;;;;;;;;;;;;;;9.50;100.00;99332.44;5097882;28;19920;-78
2022/11/05 13:15:18;;;;;;;;;;;;;;;9.44;100.00;99333.13;5109573;28;20060;-79
2022/11/05 13:17:50;;;;;;;;;;;;;;;9.37;100.00;99328.41;5112577;28;20334;-78
2022/11/05 13:20:19;;;;;;;;;;;;;;;9.32;100.00;99338.06;5112748;28;20018;-79
2022/11/05 13:22:47;;;;;;;;;;;;;;;9.36;100.00;99334.88;5111828;28;19920;-78
2022/11/05 13:25:19;;;;;;;;;;;;;;;9.34;100.00;99349.63;5112920;28;19941;-78
2022/11/05 13:27:52;;;;;;;;;;;;;;;9.29;100.00;99336.59;5112765;28;19926;-78
2022/11/05 13:30:20;;;;;;;;;;;;;;;9.36;100.00;99342.16;5091822;28;19920;-78
2022/11/05 13:32:50;;;;;;;;;;;;;;;9.52;100.00;99342.13;5092067;28;20030;-78
2022/11/05 13:35:17;;;;;;;;;;;;;;;9.47;100.00;99341.78;5092144;28;20393;-78
2022/11/05 13:40:37;;;;;;;;;;;;;;;9.51;100.00;99345.00;5092352;28;19927;-78
2022/11/05 13:43:21;;;;;;;;;;;;;;;9.54;100.00;99340.09;5091781;28;19926;-78